sensor_id;sensor_type;location;lat;lon;timestamp;temperature;humidity
38237;DHT22;50101;49.438;11.098;2024-02-14T00:00:11;19.10;51.20
38237;DHT22;50101;49.438;11.098;2024-02-14T00:02:43;19.10;51.20
38237;DHT22;50101;49.438;11.098;2024-02-14T00:05:10;19.10;51.60
38237;DHT22;50101;49.438;11.098;2024-02-14T00:07:38;19.00;51.10
38237;DHT22;50101;49.438;11.098;2024-02-14T00:10:06;19.00;51.10
38237;DHT22;50101;49.438;11.098;2024-02-14T00:12:34;19.00;51.10
38237;DHT22;50101;49.438;11.098;2024-02-14T00:15:03;19.00;51.10
38237;DHT22;50101;49.438;11.098;2024-02-14T00:17:30;19.00;51.10
38237;DHT22;50101;49.438;11.098;2024-02-14T00:22:24;19.00;51.10
38237;DHT22;50101;49.438;11.098;2024-02-14T00:24:50;19.00;51.60
38237;DHT22;50101;49.438;11.098;2024-02-14T00:27:17;19.00;51.10
38237;DHT22;50101;49.438;11.098;2024-02-14T00:29:44;19.00;51.10
38237;DHT22;50101;49.438;11.098;2024-02-14T00:32:13;19.00;51.10
38237;DHT22;50101;49.438;11.098;2024-02-14T00:34:40;19.00;51.10
38237;DHT22;50101;49.438;11.098;2024-02-14T00:37:06;19.00;51.10
38237;DHT22;50101;49.438;11.098;2024-02-14T00:42:00;19.00;51.10
38237;DHT22;50101;49.438;11.098;2024-02-14T00:46:58;19.00;51.10
38237;DHT22;50101;49.438;11.098;2024-02-14T00:49:29;19.00;51.10
38237;DHT22;50101;49.438;11.098;2024-02-14T00:51:55;19.00;51.10
38237;DHT22;50101;49.438;11.098;2024-02-14T00:54:22;19.00;51.10
38237;DHT22;50101;49.438;11.098;2024-02-14T00:56:49;19.00;51.10
38237;DHT22;50101;49.438;11.098;2024-02-14T00:59:16;19.00;51.10
38237;DHT22;50101;49.438;11.098;2024-02-14T01:01:43;18.90;51.00
38237;DHT22;50101;49.438;11.098;2024-02-14T01:04:11;19.00;51.10
38237;DHT22;50101;49.438;11.098;2024-02-14T01:06:38;19.00;51.10
38237;DHT22;50101;49.438;11.098;2024-02-14T01:09:05;19.00;51.10
38237;DHT22;50101;49.438;11.098;2024-02-14T01:11:32;19.00;51.10
38237;DHT22;50101;49.438;11.098;2024-02-14T01:13:58;18.90;51.00
38237;DHT22;50101;49.438;11.098;2024-02-14T01:16:25;19.00;51.10
38237;DHT22;50101;49.438;11.098;2024-02-14T01:21:20;19.00;51.00
38237;DHT22;50101;49.438;11.098;2024-02-14T01:23:46;18.90;51.00
38237;DHT22;50101;49.438;11.098;2024-02-14T01:26:13;18.90;51.00
38237;DHT22;50101;49.438;11.098;2024-02-14T01:28:41;19.00;51.00
38237;DHT22;50101;49.438;11.098;2024-02-14T01:31:10;18.90;51.00
38237;DHT22;50101;49.438;11.098;2024-02-14T01:33:38;18.90;51.00
38237;DHT22;50101;49.438;11.098;2024-02-14T01:36:05;18.90;51.00
38237;DHT22;50101;49.438;11.098;2024-02-14T01:38:31;18.90;51.00
38237;DHT22;50101;49.438;11.098;2024-02-14T01:41:03;18.90;51.50
38237;DHT22;50101;49.438;11.098;2024-02-14T01:43:30;18.90;51.00
38237;DHT22;50101;49.438;11.098;2024-02-14T01:46:07;18.90;51.00
38237;DHT22;50101;49.438;11.098;2024-02-14T01:48:37;18.90;51.00
38237;DHT22;50101;49.438;11.098;2024-02-14T01:51:08;18.90;51.50
38237;DHT22;50101;49.438;11.098;2024-02-14T01:53:36;18.90;51.00
38237;DHT22;50101;49.438;11.098;2024-02-14T01:56:05;18.90;51.00
38237;DHT22;50101;49.438;11.098;2024-02-14T01:58:33;18.90;51.00
38237;DHT22;50101;49.438;11.098;2024-02-14T02:01:00;18.90;51.00
38237;DHT22;50101;49.438;11.098;2024-02-14T02:03:27;18.90;51.00
38237;DHT22;50101;49.438;11.098;2024-02-14T02:05:55;18.90;51.50
38237;DHT22;50101;49.438;11.098;2024-02-14T02:08:22;18.90;51.00
38237;DHT22;50101;49.438;11.098;2024-02-14T02:10:49;18.90;51.00
38237;DHT22;50101;49.438;11.098;2024-02-14T02:13:16;18.90;51.00
38237;DHT22;50101;49.438;11.098;2024-02-14T02:15:43;18.80;50.90
38237;DHT22;50101;49.438;11.098;2024-02-14T02:18:13;18.80;50.90
38237;DHT22;50101;49.438;11.098;2024-02-14T02:20:41;18.80;50.80
38237;DHT22;50101;49.438;11.098;2024-02-14T02:23:11;18.90;50.90
38237;DHT22;50101;49.438;11.098;2024-02-14T02:25:42;18.80;50.90
38237;DHT22;50101;49.438;11.098;2024-02-14T02:28:09;18.80;51.40
38237;DHT22;50101;49.438;11.098;2024-02-14T02:30:36;18.80;50.90
38237;DHT22;50101;49.438;11.098;2024-02-14T02:33:04;18.80;50.90
38237;DHT22;50101;49.438;11.098;2024-02-14T02:35:33;18.80;50.80
38237;DHT22;50101;49.438;11.098;2024-02-14T02:38:00;18.80;50.80
38237;DHT22;50101;49.438;11.098;2024-02-14T02:40:27;18.80;50.80
38237;DHT22;50101;49.438;11.098;2024-02-14T02:42:54;18.80;50.90
38237;DHT22;50101;49.438;11.098;2024-02-14T02:45:21;18.80;50.90
38237;DHT22;50101;49.438;11.098;2024-02-14T02:47:48;18.80;50.90
38237;DHT22;50101;49.438;11.098;2024-02-14T02:50:16;18.80;50.90
38237;DHT22;50101;49.438;11.098;2024-02-14T02:52:43;18.80;50.90
38237;DHT22;50101;49.438;11.098;2024-02-14T02:55:10;18.80;50.90
38237;DHT22;50101;49.438;11.098;2024-02-14T02:57:36;18.80;50.80
38237;DHT22;50101;49.438;11.098;2024-02-14T03:00:07;18.80;50.80
38237;DHT22;50101;49.438;11.098;2024-02-14T03:02:39;18.80;50.80
38237;DHT22;50101;49.438;11.098;2024-02-14T03:05:12;18.80;50.80
38237;DHT22;50101;49.438;11.098;2024-02-14T03:07:45;18.80;50.80
38237;DHT22;50101;49.438;11.098;2024-02-14T03:10:14;18.80;50.80
38237;DHT22;50101;49.438;11.098;2024-02-14T03:12:50;18.80;50.80
38237;DHT22;50101;49.438;11.098;2024-02-14T03:15:17;18.80;50.80
38237;DHT22;50101;49.438;11.098;2024-02-14T03:17:45;18.80;50.80
38237;DHT22;50101;49.438;11.098;2024-02-14T03:20:12;18.80;50.80
38237;DHT22;50101;49.438;11.098;2024-02-14T03:22:44;18.80;50.80
38237;DHT22;50101;49.438;11.098;2024-02-14T03:25:16;18.80;50.80
38237;DHT22;50101;49.438;11.098;2024-02-14T03:27:44;18.80;50.80
38237;DHT22;50101;49.438;11.098;2024-02-14T03:30:15;18.70;50.80
38237;DHT22;50101;49.438;11.098;2024-02-14T03:32:44;18.70;50.70
38237;DHT22;50101;49.438;11.098;2024-02-14T03:35:12;18.70;50.70
38237;DHT22;50101;49.438;11.098;2024-02-14T03:37:42;18.70;50.70
38237;DHT22;50101;49.438;11.098;2024-02-14T03:40:10;18.70;50.70
38237;DHT22;50101;49.438;11.098;2024-02-14T03:42:38;18.70;50.70
38237;DHT22;50101;49.438;11.098;2024-02-14T03:45:09;18.80;50.80
38237;DHT22;50101;49.438;11.098;2024-02-14T03:47:36;18.70;50.80
38237;DHT22;50101;49.438;11.098;2024-02-14T03:50:10;18.70;50.80
38237;DHT22;50101;49.438;11.098;2024-02-14T03:52:37;18.70;50.80
38237;DHT22;50101;49.438;11.098;2024-02-14T03:55:04;18.40;50.50
38237;DHT22;50101;49.438;11.098;2024-02-14T03:57:31;18.70;50.70
38237;DHT22;50101;49.438;11.098;2024-02-14T04:00:00;18.70;50.70
38237;DHT22;50101;49.438;11.098;2024-02-14T04:02:31;18.70;50.70
38237;DHT22;50101;49.438;11.098;2024-02-14T04:04:58;18.70;51.20
38237;DHT22;50101;49.438;11.098;2024-02-14T04:07:25;18.70;50.70
38237;DHT22;50101;49.438;11.098;2024-02-14T04:09:51;18.70;50.70
38237;DHT22;50101;49.438;11.098;2024-02-14T04:12:18;18.70;50.70
38237;DHT22;50101;49.438;11.098;2024-02-14T04:14:45;18.70;50.70
38237;DHT22;50101;49.438;11.098;2024-02-14T04:19:40;18.70;50.70
38237;DHT22;50101;49.438;11.098;2024-02-14T04:22:07;18.70;50.70
38237;DHT22;50101;49.438;11.098;2024-02-14T04:24:34;18.70;50.70
38237;DHT22;50101;49.438;11.098;2024-02-14T04:27:01;18.70;50.70
38237;DHT22;50101;49.438;11.098;2024-02-14T04:29:32;18.70;50.70
38237;DHT22;50101;49.438;11.098;2024-02-14T04:32:01;18.70;50.70
38237;DHT22;50101;49.438;11.098;2024-02-14T04:34:28;18.70;50.70
38237;DHT22;50101;49.438;11.098;2024-02-14T04:36:55;18.70;50.70
38237;DHT22;50101;49.438;11.098;2024-02-14T04:39:23;18.70;50.70
38237;DHT22;50101;49.438;11.098;2024-02-14T04:41:49;18.70;50.70
38237;DHT22;50101;49.438;11.098;2024-02-14T04:44:28;18.70;50.70
38237;DHT22;50101;49.438;11.098;2024-02-14T04:54:19;18.70;50.60
38237;DHT22;50101;49.438;11.098;2024-02-14T04:56:46;18.70;50.60
38237;DHT22;50101;49.438;11.098;2024-02-14T04:59:15;18.70;50.60
38237;DHT22;50101;49.438;11.098;2024-02-14T05:01:42;18.70;50.60
38237;DHT22;50101;49.438;11.098;2024-02-14T05:04:09;18.80;50.70
38237;DHT22;50101;49.438;11.098;2024-02-14T05:09:05;18.80;50.60
38237;DHT22;50101;49.438;11.098;2024-02-14T05:11:32;18.80;50.60
38237;DHT22;50101;49.438;11.098;2024-02-14T05:13:59;18.80;50.70
38237;DHT22;50101;49.438;11.098;2024-02-14T05:16:28;18.80;50.70
38237;DHT22;50101;49.438;11.098;2024-02-14T05:18:54;18.80;50.70
38237;DHT22;50101;49.438;11.098;2024-02-14T05:21:22;18.80;50.70
38237;DHT22;50101;49.438;11.098;2024-02-14T05:23:48;18.80;50.70
38237;DHT22;50101;49.438;11.098;2024-02-14T05:26:16;18.80;50.70
38237;DHT22;50101;49.438;11.098;2024-02-14T05:28:43;18.80;50.70
38237;DHT22;50101;49.438;11.098;2024-02-14T05:31:10;18.80;50.70
38237;DHT22;50101;49.438;11.098;2024-02-14T05:33:36;18.80;50.70
38237;DHT22;50101;49.438;11.098;2024-02-14T05:36:03;18.80;50.60
38237;DHT22;50101;49.438;11.098;2024-02-14T05:38:32;18.80;50.60
38237;DHT22;50101;49.438;11.098;2024-02-14T05:41:00;18.90;50.70
38237;DHT22;50101;49.438;11.098;2024-02-14T05:43:27;18.70;50.50
38237;DHT22;50101;49.438;11.098;2024-02-14T05:45:53;18.90;50.60
38237;DHT22;50101;49.438;11.098;2024-02-14T05:48:20;18.90;50.60
38237;DHT22;50101;49.438;11.098;2024-02-14T05:50:47;18.90;50.50
38237;DHT22;50101;49.438;11.098;2024-02-14T05:53:14;18.90;50.60
38237;DHT22;50101;49.438;11.098;2024-02-14T05:55:40;18.90;50.60
38237;DHT22;50101;49.438;11.098;2024-02-14T05:58:07;18.90;50.60
38237;DHT22;50101;49.438;11.098;2024-02-14T06:00:34;19.00;50.70
38237;DHT22;50101;49.438;11.098;2024-02-14T06:10:29;19.00;50.50
38237;DHT22;50101;49.438;11.098;2024-02-14T06:12:56;19.00;50.50
38237;DHT22;50101;49.438;11.098;2024-02-14T06:15:23;19.00;50.50
38237;DHT22;50101;49.438;11.098;2024-02-14T06:17:50;19.00;50.40
38237;DHT22;50101;49.438;11.098;2024-02-14T06:20:17;19.10;50.50
38237;DHT22;50101;49.438;11.098;2024-02-14T06:22:44;19.10;50.50
38237;DHT22;50101;49.438;11.098;2024-02-14T06:25:22;19.10;50.50
38237;DHT22;50101;49.438;11.098;2024-02-14T06:27:49;19.10;50.40
38237;DHT22;50101;49.438;11.098;2024-02-14T06:30:16;19.20;50.50
38237;DHT22;50101;49.438;11.098;2024-02-14T06:32:44;19.10;50.40
38237;DHT22;50101;49.438;11.098;2024-02-14T06:35:10;19.20;50.50
38237;DHT22;50101;49.438;11.098;2024-02-14T06:37:38;19.20;50.50
38237;DHT22;50101;49.438;11.098;2024-02-14T06:40:18;19.20;50.50
38237;DHT22;50101;49.438;11.098;2024-02-14T06:42:44;19.20;50.40
38237;DHT22;50101;49.438;11.098;2024-02-14T06:45:11;19.20;50.40
38237;DHT22;50101;49.438;11.098;2024-02-14T06:47:38;19.20;50.40
38237;DHT22;50101;49.438;11.098;2024-02-14T06:50:06;19.20;50.40
38237;DHT22;50101;49.438;11.098;2024-02-14T06:52:36;19.20;50.30
38237;DHT22;50101;49.438;11.098;2024-02-14T06:55:03;19.30;50.40
38237;DHT22;50101;49.438;11.098;2024-02-14T06:57:30;19.30;50.30
38237;DHT22;50101;49.438;11.098;2024-02-14T06:59:57;19.30;50.30
38237;DHT22;50101;49.438;11.098;2024-02-14T07:02:24;19.30;50.30
38237;DHT22;50101;49.438;11.098;2024-02-14T07:04:54;19.30;50.30
38237;DHT22;50101;49.438;11.098;2024-02-14T07:07:21;19.40;50.30
38237;DHT22;50101;49.438;11.098;2024-02-14T07:14:42;19.40;50.20
38237;DHT22;50101;49.438;11.098;2024-02-14T07:22:05;19.40;50.20
38237;DHT22;50101;49.438;11.098;2024-02-14T07:24:31;19.40;50.10
38237;DHT22;50101;49.438;11.098;2024-02-14T07:26:58;19.50;50.10
38237;DHT22;50101;49.438;11.098;2024-02-14T07:31:52;19.50;50.10
38237;DHT22;50101;49.438;11.098;2024-02-14T07:34:19;19.50;50.00
38237;DHT22;50101;49.438;11.098;2024-02-14T07:36:46;19.50;50.00
38237;DHT22;50101;49.438;11.098;2024-02-14T07:39:15;19.50;50.00
38237;DHT22;50101;49.438;11.098;2024-02-14T07:41:42;19.50;50.00
38237;DHT22;50101;49.438;11.098;2024-02-14T07:44:09;19.60;50.10
38237;DHT22;50101;49.438;11.098;2024-02-14T07:46:35;19.50;50.00
38237;DHT22;50101;49.438;11.098;2024-02-14T07:49:02;19.50;49.90
38237;DHT22;50101;49.438;11.098;2024-02-14T07:51:31;19.50;50.00
38237;DHT22;50101;49.438;11.098;2024-02-14T07:54:03;19.60;50.50
38237;DHT22;50101;49.438;11.098;2024-02-14T07:56:30;19.60;50.00
38237;DHT22;50101;49.438;11.098;2024-02-14T07:58:58;19.60;50.00
38237;DHT22;50101;49.438;11.098;2024-02-14T08:01:26;19.60;50.00
38237;DHT22;50101;49.438;11.098;2024-02-14T08:03:53;19.60;50.00
38237;DHT22;50101;49.438;11.098;2024-02-14T08:06:21;19.60;50.00
38237;DHT22;50101;49.438;11.098;2024-02-14T08:08:48;19.60;49.90
38237;DHT22;50101;49.438;11.098;2024-02-14T08:11:18;19.60;50.00
38237;DHT22;50101;49.438;11.098;2024-02-14T08:13:45;19.60;50.00
38237;DHT22;50101;49.438;11.098;2024-02-14T08:16:12;19.70;50.00
38237;DHT22;50101;49.438;11.098;2024-02-14T08:18:39;19.70;49.90
38237;DHT22;50101;49.438;11.098;2024-02-14T08:21:06;19.70;49.90
38237;DHT22;50101;49.438;11.098;2024-02-14T08:23:33;19.70;49.90
38237;DHT22;50101;49.438;11.098;2024-02-14T08:26:04;19.70;49.90
38237;DHT22;50101;49.438;11.098;2024-02-14T08:28:37;19.70;49.80
38237;DHT22;50101;49.438;11.098;2024-02-14T08:31:10;19.70;49.80
38237;DHT22;50101;49.438;11.098;2024-02-14T08:33:37;19.70;49.80
38237;DHT22;50101;49.438;11.098;2024-02-14T08:36:06;19.70;49.90
38237;DHT22;50101;49.438;11.098;2024-02-14T08:38:33;19.70;49.90
38237;DHT22;50101;49.438;11.098;2024-02-14T08:41:04;19.70;50.00
38237;DHT22;50101;49.438;11.098;2024-02-14T08:43:31;19.70;50.00
38237;DHT22;50101;49.438;11.098;2024-02-14T08:45:58;19.70;49.90
38237;DHT22;50101;49.438;11.098;2024-02-14T08:48:25;19.70;49.80
38237;DHT22;50101;49.438;11.098;2024-02-14T08:50:54;19.70;49.80
38237;DHT22;50101;49.438;11.098;2024-02-14T08:53:20;19.70;49.90
38237;DHT22;50101;49.438;11.098;2024-02-14T08:55:48;19.70;50.00
38237;DHT22;50101;49.438;11.098;2024-02-14T08:58:15;19.70;49.90
38237;DHT22;50101;49.438;11.098;2024-02-14T09:00:41;19.70;50.00
38237;DHT22;50101;49.438;11.098;2024-02-14T09:03:08;19.70;50.00
38237;DHT22;50101;49.438;11.098;2024-02-14T09:05:35;19.70;50.00
38237;DHT22;50101;49.438;11.098;2024-02-14T09:08:04;19.70;50.40
38237;DHT22;50101;49.438;11.098;2024-02-14T09:10:30;19.70;49.90
38237;DHT22;50101;49.438;11.098;2024-02-14T09:12:57;19.70;50.00
38237;DHT22;50101;49.438;11.098;2024-02-14T09:15:24;19.70;50.00
38237;DHT22;50101;49.438;11.098;2024-02-14T09:17:53;19.70;50.00
38237;DHT22;50101;49.438;11.098;2024-02-14T09:20:20;19.70;50.00
38237;DHT22;50101;49.438;11.098;2024-02-14T09:22:47;19.70;50.00
38237;DHT22;50101;49.438;11.098;2024-02-14T09:25:13;19.70;50.00
38237;DHT22;50101;49.438;11.098;2024-02-14T09:27:41;19.70;50.00
38237;DHT22;50101;49.438;11.098;2024-02-14T09:30:08;19.70;50.00
38237;DHT22;50101;49.438;11.098;2024-02-14T09:32:44;19.70;50.10
38237;DHT22;50101;49.438;11.098;2024-02-14T09:35:11;19.70;50.10
38237;DHT22;50101;49.438;11.098;2024-02-14T09:37:38;19.70;50.10
38237;DHT22;50101;49.438;11.098;2024-02-14T09:40:06;19.70;50.10
38237;DHT22;50101;49.438;11.098;2024-02-14T09:42:54;19.70;50.00
38237;DHT22;50101;49.438;11.098;2024-02-14T09:45:30;19.70;50.10
38237;DHT22;50101;49.438;11.098;2024-02-14T09:48:00;19.70;50.10
38237;DHT22;50101;49.438;11.098;2024-02-14T09:50:29;19.70;50.10
38237;DHT22;50101;49.438;11.098;2024-02-14T09:52:58;19.70;50.10
38237;DHT22;50101;49.438;11.098;2024-02-14T09:55:25;19.70;50.10
38237;DHT22;50101;49.438;11.098;2024-02-14T09:57:54;19.70;50.10
38237;DHT22;50101;49.438;11.098;2024-02-14T10:00:22;19.70;50.10
38237;DHT22;50101;49.438;11.098;2024-02-14T10:02:49;19.70;50.10
38237;DHT22;50101;49.438;11.098;2024-02-14T10:05:16;19.70;50.10
38237;DHT22;50101;49.438;11.098;2024-02-14T10:07:44;19.70;50.10
38237;DHT22;50101;49.438;11.098;2024-02-14T10:10:11;19.70;50.10
38237;DHT22;50101;49.438;11.098;2024-02-14T10:12:38;19.70;50.10
38237;DHT22;50101;49.438;11.098;2024-02-14T10:15:06;19.70;50.10
38237;DHT22;50101;49.438;11.098;2024-02-14T10:17:34;19.70;50.10
38237;DHT22;50101;49.438;11.098;2024-02-14T10:20:02;19.70;50.10
38237;DHT22;50101;49.438;11.098;2024-02-14T10:22:37;19.70;50.10
38237;DHT22;50101;49.438;11.098;2024-02-14T10:25:05;19.70;50.10
38237;DHT22;50101;49.438;11.098;2024-02-14T10:27:39;19.70;50.00
38237;DHT22;50101;49.438;11.098;2024-02-14T10:30:07;19.70;50.00
38237;DHT22;50101;49.438;11.098;2024-02-14T10:32:37;19.70;50.10
38237;DHT22;50101;49.438;11.098;2024-02-14T10:35:04;19.70;50.10
38237;DHT22;50101;49.438;11.098;2024-02-14T10:37:35;19.70;50.10
38237;DHT22;50101;49.438;11.098;2024-02-14T10:40:02;19.70;50.10
38237;DHT22;50101;49.438;11.098;2024-02-14T10:42:31;19.70;50.10
38237;DHT22;50101;49.438;11.098;2024-02-14T10:45:01;19.70;50.10
38237;DHT22;50101;49.438;11.098;2024-02-14T10:47:34;19.70;50.20
38237;DHT22;50101;49.438;11.098;2024-02-14T10:50:06;19.70;50.10
38237;DHT22;50101;49.438;11.098;2024-02-14T10:52:35;19.70;50.10
38237;DHT22;50101;49.438;11.098;2024-02-14T10:55:04;19.70;50.10
38237;DHT22;50101;49.438;11.098;2024-02-14T10:57:32;19.70;50.10
38237;DHT22;50101;49.438;11.098;2024-02-14T11:00:02;19.70;50.10
38237;DHT22;50101;49.438;11.098;2024-02-14T11:02:29;19.40;49.90
38237;DHT22;50101;49.438;11.098;2024-02-14T11:04:57;19.70;50.10
38237;DHT22;50101;49.438;11.098;2024-02-14T11:07:27;19.70;50.10
38237;DHT22;50101;49.438;11.098;2024-02-14T11:10:07;19.70;50.10
38237;DHT22;50101;49.438;11.098;2024-02-14T11:12:35;19.70;50.10
38237;DHT22;50101;49.438;11.098;2024-02-14T11:15:19;19.70;50.60
38237;DHT22;50101;49.438;11.098;2024-02-14T11:17:48;19.70;50.10
38237;DHT22;50101;49.438;11.098;2024-02-14T11:20:32;19.60;50.10
38237;DHT22;50101;49.438;11.098;2024-02-14T11:23:06;19.70;50.10
38237;DHT22;50101;49.438;11.098;2024-02-14T11:25:38;19.70;50.20
38237;DHT22;50101;49.438;11.098;2024-02-14T11:28:16;19.70;50.10
38237;DHT22;50101;49.438;11.098;2024-02-14T11:30:44;19.70;50.10
38237;DHT22;50101;49.438;11.098;2024-02-14T11:33:13;19.70;50.60
38237;DHT22;50101;49.438;11.098;2024-02-14T11:35:41;19.70;50.10
38237;DHT22;50101;49.438;11.098;2024-02-14T11:38:09;19.70;50.10
38237;DHT22;50101;49.438;11.098;2024-02-14T11:40:39;19.70;50.10
38237;DHT22;50101;49.438;11.098;2024-02-14T11:43:15;19.70;50.10
38237;DHT22;50101;49.438;11.098;2024-02-14T11:45:44;19.70;50.10
38237;DHT22;50101;49.438;11.098;2024-02-14T11:48:13;19.70;50.10
38237;DHT22;50101;49.438;11.098;2024-02-14T11:50:42;19.30;49.70
38237;DHT22;50101;49.438;11.098;2024-02-14T11:53:13;19.70;50.10
38237;DHT22;50101;49.438;11.098;2024-02-14T11:55:43;19.70;50.10
38237;DHT22;50101;49.438;11.098;2024-02-14T11:58:11;19.70;50.60
38237;DHT22;50101;49.438;11.098;2024-02-14T12:00:40;19.60;50.00
38237;DHT22;50101;49.438;11.098;2024-02-14T12:03:09;19.70;50.10
38237;DHT22;50101;49.438;11.098;2024-02-14T12:05:37;19.70;50.60
38237;DHT22;50101;49.438;11.098;2024-02-14T12:08:06;19.70;50.10
38237;DHT22;50101;49.438;11.098;2024-02-14T12:10:34;19.70;50.10
38237;DHT22;50101;49.438;11.098;2024-02-14T12:13:27;19.70;50.10
38237;DHT22;50101;49.438;11.098;2024-02-14T12:16:00;19.70;50.10
38237;DHT22;50101;49.438;11.098;2024-02-14T12:18:26;19.70;50.10
38237;DHT22;50101;49.438;11.098;2024-02-14T12:21:03;19.70;50.20
38237;DHT22;50101;49.438;11.098;2024-02-14T12:23:30;19.60;50.20
38237;DHT22;50101;49.438;11.098;2024-02-14T12:26:01;19.60;50.20
38237;DHT22;50101;49.438;11.098;2024-02-14T12:28:30;19.60;50.20
38237;DHT22;50101;49.438;11.098;2024-02-14T12:31:00;19.60;50.00
38237;DHT22;50101;49.438;11.098;2024-02-14T12:33:27;19.60;50.10
38237;DHT22;50101;49.438;11.098;2024-02-14T12:35:55;19.60;50.20
38237;DHT22;50101;49.438;11.098;2024-02-14T12:40:51;19.60;50.30
38237;DHT22;50101;49.438;11.098;2024-02-14T12:43:21;19.60;50.30
38237;DHT22;50101;49.438;11.098;2024-02-14T12:45:48;19.60;50.30
38237;DHT22;50101;49.438;11.098;2024-02-14T12:48:22;19.60;50.10
38237;DHT22;50101;49.438;11.098;2024-02-14T12:50:51;19.60;50.20
38237;DHT22;50101;49.438;11.098;2024-02-14T12:53:18;19.60;50.30
38237;DHT22;50101;49.438;11.098;2024-02-14T12:55:46;19.60;50.30
38237;DHT22;50101;49.438;11.098;2024-02-14T12:58:13;19.60;50.30
38237;DHT22;50101;49.438;11.098;2024-02-14T13:00:40;19.60;50.30
38237;DHT22;50101;49.438;11.098;2024-02-14T13:03:07;19.60;50.30
38237;DHT22;50101;49.438;11.098;2024-02-14T13:05:34;19.70;50.50
38237;DHT22;50101;49.438;11.098;2024-02-14T13:08:03;19.60;50.30
38237;DHT22;50101;49.438;11.098;2024-02-14T13:10:29;19.60;50.30
38237;DHT22;50101;49.438;11.098;2024-02-14T13:12:57;19.60;50.30
38237;DHT22;50101;49.438;11.098;2024-02-14T13:15:26;19.60;50.30
38237;DHT22;50101;49.438;11.098;2024-02-14T13:17:53;19.60;50.30
38237;DHT22;50101;49.438;11.098;2024-02-14T13:20:20;19.60;50.30
38237;DHT22;50101;49.438;11.098;2024-02-14T13:22:47;19.60;50.40
38237;DHT22;50101;49.438;11.098;2024-02-14T13:25:14;19.60;50.40
38237;DHT22;50101;49.438;11.098;2024-02-14T13:27:43;19.60;50.90
38237;DHT22;50101;49.438;11.098;2024-02-14T13:30:11;19.60;50.40
38237;DHT22;50101;49.438;11.098;2024-02-14T13:32:38;19.60;50.30
38237;DHT22;50101;49.438;11.098;2024-02-14T13:35:05;19.60;50.40
38237;DHT22;50101;49.438;11.098;2024-02-14T13:37:33;19.70;50.40
38237;DHT22;50101;49.438;11.098;2024-02-14T13:39:59;19.60;50.30
38237;DHT22;50101;49.438;11.098;2024-02-14T13:42:27;19.60;50.40
38237;DHT22;50101;49.438;11.098;2024-02-14T13:44:54;19.60;50.40
38237;DHT22;50101;49.438;11.098;2024-02-14T13:47:21;19.60;50.40
38237;DHT22;50101;49.438;11.098;2024-02-14T13:52:18;19.60;50.40
38237;DHT22;50101;49.438;11.098;2024-02-14T13:54:47;19.60;50.40
38237;DHT22;50101;49.438;11.098;2024-02-14T13:57:14;19.60;50.40
38237;DHT22;50101;49.438;11.098;2024-02-14T13:59:44;19.60;50.40
38237;DHT22;50101;49.438;11.098;2024-02-14T14:02:12;19.60;50.40
38237;DHT22;50101;49.438;11.098;2024-02-14T14:04:38;19.60;50.40
38237;DHT22;50101;49.438;11.098;2024-02-14T14:07:05;19.60;50.90
38237;DHT22;50101;49.438;11.098;2024-02-14T14:09:32;19.60;50.50
38237;DHT22;50101;49.438;11.098;2024-02-14T14:11:59;19.60;50.50
38237;DHT22;50101;49.438;11.098;2024-02-14T14:14:26;19.60;50.50
38237;DHT22;50101;49.438;11.098;2024-02-14T14:16:53;19.50;50.40
38237;DHT22;50101;49.438;11.098;2024-02-14T14:19:20;19.60;50.40
38237;DHT22;50101;49.438;11.098;2024-02-14T14:21:47;19.60;50.50
38237;DHT22;50101;49.438;11.098;2024-02-14T14:24:13;19.50;50.50
38237;DHT22;50101;49.438;11.098;2024-02-14T14:26:41;19.50;50.50
38237;DHT22;50101;49.438;11.098;2024-02-14T14:29:09;19.50;50.40
38237;DHT22;50101;49.438;11.098;2024-02-14T14:31:36;19.50;50.50
38237;DHT22;50101;49.438;11.098;2024-02-14T14:34:02;19.60;50.50
38237;DHT22;50101;49.438;11.098;2024-02-14T14:36:30;19.60;50.50
38237;DHT22;50101;49.438;11.098;2024-02-14T14:38:56;19.50;50.90
38237;DHT22;50101;49.438;11.098;2024-02-14T14:41:24;19.60;51.10
38237;DHT22;50101;49.438;11.098;2024-02-14T14:43:51;19.60;50.60
38237;DHT22;50101;49.438;11.098;2024-02-14T14:46:17;19.50;50.50
38237;DHT22;50101;49.438;11.098;2024-02-14T14:48:47;19.60;50.50
38237;DHT22;50101;49.438;11.098;2024-02-14T14:51:15;19.50;50.50
38237;DHT22;50101;49.438;11.098;2024-02-14T14:53:42;19.50;50.50
38237;DHT22;50101;49.438;11.098;2024-02-14T14:56:09;19.50;50.50
38237;DHT22;50101;49.438;11.098;2024-02-14T14:58:36;19.50;50.50
38237;DHT22;50101;49.438;11.098;2024-02-14T15:01:03;19.50;51.00
38237;DHT22;50101;49.438;11.098;2024-02-14T15:03:33;19.50;50.50
38237;DHT22;50101;49.438;11.098;2024-02-14T15:06:00;19.50;50.50
38237;DHT22;50101;49.438;11.098;2024-02-14T15:08:27;19.50;50.50
38237;DHT22;50101;49.438;11.098;2024-02-14T15:10:55;19.50;50.40
38237;DHT22;50101;49.438;11.098;2024-02-14T15:13:22;19.60;50.50
38237;DHT22;50101;49.438;11.098;2024-02-14T15:15:51;19.60;50.50
38237;DHT22;50101;49.438;11.098;2024-02-14T15:18:17;19.60;50.50
38237;DHT22;50101;49.438;11.098;2024-02-14T15:20:45;19.60;51.00
38237;DHT22;50101;49.438;11.098;2024-02-14T15:23:12;19.60;50.50
38237;DHT22;50101;49.438;11.098;2024-02-14T15:25:38;19.60;50.50
38237;DHT22;50101;49.438;11.098;2024-02-14T15:28:09;19.60;50.50
38237;DHT22;50101;49.438;11.098;2024-02-14T15:30:52;19.60;51.00
38237;DHT22;50101;49.438;11.098;2024-02-14T15:33:37;19.60;50.50
38237;DHT22;50101;49.438;11.098;2024-02-14T15:36:04;19.60;50.50
38237;DHT22;50101;49.438;11.098;2024-02-14T15:38:32;19.60;50.60
38237;DHT22;50101;49.438;11.098;2024-02-14T15:40:58;19.60;50.60
38237;DHT22;50101;49.438;11.098;2024-02-14T15:43:28;19.60;50.50
38237;DHT22;50101;49.438;11.098;2024-02-14T15:48:24;19.60;50.60
38237;DHT22;50101;49.438;11.098;2024-02-14T15:50:53;19.60;50.60
38237;DHT22;50101;49.438;11.098;2024-02-14T15:53:20;19.60;50.60
38237;DHT22;50101;49.438;11.098;2024-02-14T15:58:14;19.60;50.50
38237;DHT22;50101;49.438;11.098;2024-02-14T16:00:41;19.60;50.50
38237;DHT22;50101;49.438;11.098;2024-02-14T16:03:09;19.60;50.40
38237;DHT22;50101;49.438;11.098;2024-02-14T16:05:37;19.60;50.50
38237;DHT22;50101;49.438;11.098;2024-02-14T16:08:05;19.60;50.50
38237;DHT22;50101;49.438;11.098;2024-02-14T16:10:31;19.60;50.50
38237;DHT22;50101;49.438;11.098;2024-02-14T16:12:58;19.60;51.00